createdAt,value
2019-02-04T00:01:20.334Z,3.40
2019-02-04T00:03:51.746Z,3.40
2019-02-04T00:06:22.080Z,3.20
2019-02-04T00:08:52.362Z,3.20
2019-02-04T00:11:22.706Z,3.10
2019-02-04T00:13:53.013Z,3.10
2019-02-04T00:16:23.201Z,3.10
2019-02-04T00:18:53.470Z,3.10
2019-02-04T00:21:23.747Z,3.20
2019-02-04T00:23:54.045Z,3.10
2019-02-04T00:26:24.440Z,3.10
2019-02-04T00:28:54.643Z,3.20
2019-02-04T00:31:25.346Z,3.20
2019-02-04T00:33:55.631Z,3.20
2019-02-04T00:36:25.961Z,3.20
2019-02-04T00:38:56.254Z,3.10
2019-02-04T00:41:26.501Z,3.00
2019-02-04T00:43:57.441Z,3.00
2019-02-04T00:46:27.734Z,3.00
2019-02-04T00:48:58.016Z,2.90
2019-02-04T00:51:28.388Z,2.90
2019-02-04T00:53:58.678Z,2.80
2019-02-04T00:56:28.935Z,2.70
2019-02-04T00:58:59.229Z,2.60
2019-02-04T01:01:29.963Z,2.60
2019-02-04T01:04:00.249Z,2.60
2019-02-04T01:06:30.499Z,2.50
2019-02-04T01:09:00.939Z,2.50
2019-02-04T01:11:33.233Z,2.50
2019-02-04T01:14:05.084Z,2.40
2019-02-04T01:16:35.457Z,2.40
2019-02-04T01:19:06.984Z,2.30
2019-02-04T01:21:37.331Z,2.30
2019-02-04T01:24:07.601Z,2.30
2019-02-04T01:26:37.913Z,2.30
2019-02-04T01:29:08.255Z,2.30
2019-02-04T01:31:38.533Z,2.30
2019-02-04T01:34:08.819Z,2.30
2019-02-04T01:36:39.381Z,2.40
2019-02-04T01:39:10.803Z,2.30
2019-02-04T01:41:41.049Z,2.40
2019-02-04T01:44:11.477Z,2.30
2019-02-04T01:46:41.849Z,2.20
2019-02-04T01:49:12.623Z,2.20
2019-02-04T01:51:42.881Z,2.10
2019-02-04T01:54:13.146Z,2.10
2019-02-04T01:56:43.479Z,2.10
2019-02-04T01:59:13.737Z,2.10
2019-02-04T02:01:44.053Z,2.00
2019-02-04T02:04:14.549Z,2.00
2019-02-04T02:06:44.888Z,1.90
2019-02-04T02:09:22.878Z,2.00
2019-02-04T02:11:53.124Z,2.00
2019-02-04T02:14:23.889Z,1.90
2019-02-04T02:16:54.227Z,2.00
2019-02-04T02:19:24.782Z,1.90
2019-02-04T02:21:55.053Z,1.80
2019-02-04T02:24:25.390Z,1.80
2019-02-04T02:26:56.042Z,1.80
2019-02-04T02:29:26.311Z,1.70
2019-02-04T02:31:56.644Z,1.70
2019-02-04T02:34:26.902Z,1.70
2019-02-04T02:36:57.279Z,1.60
2019-02-04T02:39:32.910Z,1.50
2019-02-04T02:42:08.626Z,1.40
2019-02-04T02:44:38.871Z,1.50
2019-02-04T02:47:09.190Z,1.50
2019-02-04T02:49:39.314Z,1.50
2019-02-04T02:52:10.395Z,1.40
2019-02-04T02:54:40.640Z,1.40
2019-02-04T02:57:10.931Z,1.40
2019-02-04T02:59:41.240Z,1.30
2019-02-04T03:02:11.520Z,1.30
2019-02-04T03:04:41.809Z,1.40
2019-02-04T03:07:12.104Z,1.40
2019-02-04T03:09:42.354Z,1.30
2019-02-04T03:12:12.592Z,1.40
2019-02-04T03:14:43.157Z,1.40
2019-02-04T03:17:13.398Z,1.40
2019-02-04T03:19:44.026Z,1.40
2019-02-04T03:22:14.194Z,1.40
2019-02-04T03:24:44.470Z,1.30
2019-02-04T03:27:14.732Z,1.40
2019-02-04T03:29:45.042Z,1.30
2019-02-04T03:32:15.731Z,1.20
2019-02-04T03:34:46.149Z,1.20
2019-02-04T03:37:16.422Z,1.20
2019-02-04T03:39:46.672Z,1.30
2019-02-04T03:42:17.022Z,1.30
2019-02-04T03:44:47.306Z,1.30
2019-02-04T03:47:17.694Z,1.30
2019-02-04T03:49:47.922Z,1.20
2019-02-04T03:52:18.150Z,1.30
2019-02-04T03:54:48.379Z,1.20
2019-02-04T03:57:18.656Z,1.20
2019-02-04T03:59:48.900Z,1.30
2019-02-04T04:02:19.537Z,1.30
2019-02-04T04:04:49.804Z,1.30
2019-02-04T04:07:20.133Z,1.30
2019-02-04T04:09:51.618Z,1.30
2019-02-04T04:12:22.408Z,1.20
2019-02-04T04:14:52.654Z,1.10
2019-02-04T04:17:23.103Z,1.10
2019-02-04T04:19:53.406Z,1.20
2019-02-04T04:22:23.734Z,1.20
2019-02-04T04:24:54.298Z,1.20
2019-02-04T04:27:24.559Z,1.20
2019-02-04T04:29:54.867Z,1.10
2019-02-04T04:32:25.139Z,1.10
2019-02-04T04:34:55.346Z,1.10
2019-02-04T04:37:25.643Z,1.20
2019-02-04T04:39:55.874Z,1.10
2019-02-04T04:42:26.137Z,1.10
2019-02-04T04:44:56.426Z,1.10
2019-02-04T04:47:26.727Z,1.10
2019-02-04T04:49:56.906Z,1.10
2019-02-04T04:52:27.503Z,1.10
2019-02-04T04:54:57.833Z,1.10
2019-02-04T04:57:28.177Z,1.10
2019-02-04T04:59:58.405Z,1.10
2019-02-04T05:02:28.709Z,1.10
2019-02-04T05:04:59.389Z,1.10
2019-02-04T05:07:29.670Z,1.10
2019-02-04T05:09:59.917Z,1.00
2019-02-04T05:12:30.233Z,1.00
2019-02-04T05:15:00.517Z,1.00
2019-02-04T05:17:30.821Z,1.00
2019-02-04T05:20:01.177Z,1.00
2019-02-04T05:22:31.723Z,0.90
2019-02-04T05:25:01.994Z,1.00
2019-02-04T05:27:32.378Z,1.00
2019-02-04T05:30:02.661Z,1.00
2019-02-04T05:32:33.166Z,1.00
2019-02-04T05:35:03.638Z,1.00
2019-02-04T05:37:33.933Z,1.00
2019-02-04T05:40:04.845Z,1.00
2019-02-04T05:42:35.160Z,1.00
2019-02-04T05:45:07.295Z,1.00
2019-02-04T05:47:37.533Z,0.90
2019-02-04T05:50:10.615Z,0.90
2019-02-04T05:52:40.902Z,0.90
2019-02-04T05:55:12.009Z,1.00
2019-02-04T05:57:42.785Z,1.00
2019-02-04T06:00:20.647Z,1.00
2019-02-04T06:02:50.945Z,1.00
2019-02-04T06:05:21.595Z,0.90
2019-02-04T06:07:51.931Z,0.90
2019-02-04T06:10:22.347Z,1.00
2019-02-04T06:12:52.790Z,1.00
2019-02-04T06:15:23.556Z,1.00
2019-02-04T06:17:53.864Z,1.00
2019-02-04T06:20:24.238Z,1.00
2019-02-04T06:22:55.066Z,1.00
2019-02-04T06:25:25.344Z,1.10
2019-02-04T06:27:55.602Z,1.10
2019-02-04T06:30:25.972Z,1.10
2019-02-04T06:32:56.643Z,1.00
2019-02-04T06:35:28.163Z,1.10
2019-02-04T06:37:58.454Z,1.10
2019-02-04T06:40:28.841Z,1.10
2019-02-04T06:42:59.094Z,1.00
2019-02-04T06:45:29.427Z,1.10
2019-02-04T06:47:59.673Z,1.10
2019-02-04T06:50:29.934Z,1.10
2019-02-04T06:53:00.158Z,1.10
2019-02-04T06:55:32.018Z,1.10
2019-02-04T06:58:02.278Z,1.10
2019-02-04T07:00:32.590Z,1.20
2019-02-04T07:03:03.174Z,1.10
2019-02-04T07:05:43.411Z,1.10
2019-02-04T07:08:05.762Z,1.10
2019-02-04T07:10:36.006Z,1.20
2019-02-04T07:13:06.281Z,1.10
2019-02-04T07:15:36.434Z,1.20
2019-02-04T07:18:06.846Z,1.10
2019-02-04T07:20:37.108Z,1.20
2019-02-04T07:23:07.629Z,1.20
2019-02-04T07:25:39.020Z,1.20
2019-02-04T07:28:09.313Z,1.20
2019-02-04T07:30:39.940Z,1.20
2019-02-04T07:33:10.211Z,1.20
2019-02-04T07:35:40.480Z,1.10
2019-02-04T07:38:10.712Z,1.20
2019-02-04T07:40:41.005Z,1.20
2019-02-04T07:43:11.316Z,1.20
2019-02-04T07:45:41.687Z,1.30
2019-02-04T07:48:11.936Z,1.30
2019-02-04T07:50:42.422Z,1.20
2019-02-04T07:53:12.633Z,1.30
2019-02-04T07:55:42.931Z,1.30
2019-02-04T07:58:13.166Z,1.30
2019-02-04T08:00:43.766Z,1.40
2019-02-04T08:03:15.133Z,0.90
2019-02-04T08:05:45.612Z,1.10
2019-02-04T08:08:15.913Z,1.20
2019-02-04T08:10:46.582Z,1.30
2019-02-04T08:13:17.075Z,1.30
2019-02-04T08:15:47.417Z,1.30
2019-02-04T08:18:17.763Z,1.30
2019-02-04T08:20:48.007Z,1.30
2019-02-04T08:23:18.250Z,1.30
2019-02-04T08:25:48.680Z,1.40
2019-02-04T08:28:19.038Z,1.40
2019-02-04T08:30:49.327Z,1.40
2019-02-04T08:33:19.569Z,1.40
2019-02-04T08:35:49.863Z,1.50
2019-02-04T08:38:20.579Z,1.50
2019-02-04T08:40:50.870Z,1.60
2019-02-04T08:43:21.207Z,1.60
2019-02-04T08:45:51.637Z,1.60
2019-02-04T08:48:21.989Z,1.70
2019-02-04T08:50:52.197Z,1.80
2019-02-04T08:53:22.449Z,1.90
2019-02-04T08:55:52.718Z,2.00
2019-02-04T08:58:22.933Z,1.90
2019-02-04T09:00:53.181Z,1.90
2019-02-04T09:03:23.544Z,2.00
2019-02-04T09:05:53.769Z,2.10
2019-02-04T09:08:24.245Z,2.10
2019-02-04T09:10:54.495Z,2.10
2019-02-04T09:13:24.891Z,2.10
2019-02-04T09:15:55.161Z,2.00
2019-02-04T09:18:25.489Z,1.70
2019-02-04T09:20:56.195Z,1.80
2019-02-04T09:23:26.527Z,1.80
2019-02-04T09:25:58.007Z,1.80
2019-02-04T09:28:29.927Z,1.70
2019-02-04T09:31:00.117Z,1.90
2019-02-04T09:33:30.463Z,1.80
2019-02-04T09:36:00.729Z,1.90
2019-02-04T09:38:31.016Z,1.90
2019-02-04T09:41:01.458Z,1.90
2019-02-04T09:43:31.818Z,1.90
2019-02-04T09:46:02.043Z,1.80
2019-02-04T09:48:32.969Z,1.90
2019-02-04T09:51:03.518Z,1.90
2019-02-04T09:53:33.850Z,2.00
2019-02-04T09:56:04.388Z,2.00
2019-02-04T09:58:34.644Z,1.90
2019-02-04T10:01:05.405Z,1.90
2019-02-04T10:03:35.878Z,1.90
2019-02-04T10:06:06.330Z,2.00
2019-02-04T10:08:36.654Z,2.20
2019-02-04T10:11:06.995Z,2.30
2019-02-04T10:13:37.335Z,2.30
2019-02-04T10:16:08.150Z,2.30
2019-02-04T10:18:38.722Z,2.30
2019-02-04T10:21:09.039Z,2.50
2019-02-04T10:23:39.386Z,2.50
2019-02-04T10:26:09.760Z,2.40
2019-02-04T10:28:40.452Z,2.40
2019-02-04T10:31:10.767Z,2.40
2019-02-04T10:33:40.976Z,2.30
2019-02-04T10:36:11.262Z,2.40
2019-02-04T10:38:41.761Z,2.40
2019-02-04T10:41:12.132Z,2.40
2019-02-04T10:43:42.519Z,2.30
2019-02-04T10:46:12.865Z,2.20
2019-02-04T10:48:43.493Z,2.20
2019-02-04T10:51:15.152Z,2.20
2019-02-04T10:53:45.362Z,2.20
2019-02-04T10:56:16.371Z,2.30
2019-02-04T10:58:47.102Z,2.20
2019-02-04T11:01:17.786Z,2.00
2019-02-04T11:03:48.154Z,2.00
2019-02-04T11:06:18.593Z,2.20
2019-02-04T11:08:57.376Z,2.10
2019-02-04T11:11:27.956Z,2.20
2019-02-04T11:13:58.260Z,2.20
2019-02-04T11:16:28.540Z,2.20
2019-02-04T11:18:58.914Z,2.10
2019-02-04T11:21:29.687Z,2.10
2019-02-04T11:23:59.935Z,2.10
2019-02-04T11:26:30.199Z,2.10
2019-02-04T11:29:00.740Z,2.00
2019-02-04T11:31:31.022Z,2.10
2019-02-04T11:34:01.937Z,2.10
2019-02-04T11:36:32.223Z,2.00
2019-02-04T11:39:02.519Z,2.10
2019-02-04T11:41:34.427Z,2.00
2019-02-04T11:44:04.745Z,2.00
2019-02-04T11:46:35.092Z,2.00
2019-02-04T11:49:05.601Z,1.90
2019-02-04T11:51:35.987Z,1.90
2019-02-04T11:54:06.267Z,2.00
2019-02-04T11:56:36.482Z,2.00
2019-02-04T11:59:06.736Z,2.00
2019-02-04T12:01:37.045Z,2.00
2019-02-04T12:04:07.348Z,2.00
2019-02-04T12:06:37.595Z,2.00
2019-02-04T12:09:09.813Z,2.10
2019-02-04T12:11:40.159Z,2.20
2019-02-04T12:14:11.005Z,2.20
2019-02-04T12:16:41.570Z,2.20
2019-02-04T12:19:11.854Z,2.20
2019-02-04T12:21:42.033Z,2.20
2019-02-04T12:24:12.363Z,2.20
2019-02-04T12:26:42.660Z,2.20
2019-02-04T12:29:12.949Z,2.10
2019-02-04T12:31:43.171Z,2.00
2019-02-04T12:34:13.376Z,2.10
2019-02-04T12:36:43.619Z,2.10
2019-02-04T12:39:18.889Z,2.10
2019-02-04T12:41:50.781Z,2.20
2019-02-04T12:44:21.761Z,2.30
2019-02-04T12:46:52.060Z,2.30
2019-02-04T12:49:22.413Z,2.30
2019-02-04T12:51:52.666Z,2.30
2019-02-04T12:54:26.519Z,2.40
2019-02-04T12:56:55.353Z,2.50
2019-02-04T12:59:25.993Z,2.20
2019-02-04T13:01:56.325Z,2.20
2019-02-04T13:04:26.590Z,2.10
2019-02-04T13:06:57.456Z,1.90
2019-02-04T13:09:27.899Z,1.90
2019-02-04T13:11:58.227Z,2.00
2019-02-04T13:14:28.467Z,2.20
2019-02-04T13:16:58.817Z,2.10
2019-02-04T13:19:29.142Z,2.20
2019-02-04T13:21:59.762Z,2.20
2019-02-04T13:24:30.057Z,2.10
2019-02-04T13:27:00.408Z,2.00
2019-02-04T13:29:30.663Z,2.00
2019-02-04T13:32:02.131Z,1.80
2019-02-04T13:34:32.790Z,1.90
2019-02-04T13:37:03.151Z,2.00
2019-02-04T13:39:33.382Z,2.00
2019-02-04T13:42:03.712Z,2.00
2019-02-04T13:44:33.999Z,1.90
2019-02-04T13:47:05.862Z,1.90
2019-02-04T13:49:36.283Z,2.00
2019-02-04T13:52:06.591Z,2.20
2019-02-04T13:54:36.887Z,2.10
2019-02-04T13:57:07.211Z,2.00
2019-02-04T13:59:37.515Z,1.90
2019-02-04T14:02:09.436Z,2.00
2019-02-04T14:04:39.757Z,2.10
2019-02-04T14:07:10.091Z,2.00
2019-02-04T14:09:40.406Z,2.00
2019-02-04T14:12:10.747Z,2.20
2019-02-04T14:14:41.037Z,2.00
2019-02-04T14:17:11.617Z,1.90
2019-02-04T14:19:41.866Z,1.90
2019-02-04T14:22:12.286Z,2.00
2019-02-04T14:24:42.587Z,2.00
2019-02-04T14:27:12.906Z,2.00
2019-02-04T14:29:43.222Z,1.90
2019-02-04T14:32:13.601Z,1.80
2019-02-04T14:34:43.962Z,1.70
2019-02-04T14:37:14.267Z,1.70
2019-02-04T14:39:45.010Z,1.80
2019-02-04T14:42:18.090Z,1.80
2019-02-04T14:44:56.374Z,1.70
2019-02-04T14:48:02.759Z,1.70
2019-02-04T14:50:49.522Z,1.70
2019-02-04T14:53:55.614Z,1.70
2019-02-04T14:56:48.251Z,1.70
2019-02-04T14:59:31.922Z,1.70
2019-02-04T15:02:23.310Z,1.80
2019-02-04T15:05:22.190Z,1.80
2019-02-04T15:08:42.222Z,1.80
2019-02-04T15:11:39.798Z,1.90
2019-02-04T15:15:15.394Z,1.90
2019-02-04T15:18:31.372Z,1.80
2019-02-04T15:21:35.960Z,1.60
2019-02-04T15:24:55.694Z,1.70
2019-02-04T15:28:00.153Z,1.60
2019-02-04T15:30:59.090Z,1.70
2019-02-04T15:34:10.807Z,1.80
2019-02-04T15:37:04.070Z,1.90
2019-02-04T15:39:54.084Z,1.80
2019-02-04T15:43:10.724Z,1.70
2019-02-04T15:45:56.075Z,1.70
2019-02-04T15:48:42.862Z,1.80
2019-02-04T15:51:36.552Z,1.70
2019-02-04T15:54:08.963Z,1.60
2019-02-04T15:56:39.222Z,1.60
2019-02-04T15:59:09.539Z,1.60
2019-02-04T16:01:39.814Z,1.60
2019-02-04T16:04:30.139Z,1.70
2019-02-04T16:07:00.397Z,1.70
2019-02-04T16:09:31.997Z,1.70
2019-02-04T16:12:02.810Z,1.70
2019-02-04T16:14:33.526Z,1.60
2019-02-04T16:17:10.988Z,1.60
2019-02-04T16:19:42.283Z,1.60
2019-02-04T16:22:12.722Z,1.60
2019-02-04T16:24:43.123Z,1.50
2019-02-04T16:27:13.847Z,1.50
2019-02-04T16:29:44.198Z,1.60
2019-02-04T16:32:14.623Z,1.50
2019-02-04T16:34:44.914Z,1.60
2019-02-04T16:37:15.229Z,1.70
2019-02-04T16:39:45.595Z,1.80
2019-02-04T16:42:15.872Z,1.70
2019-02-04T16:44:46.232Z,1.60
2019-02-04T16:47:16.759Z,1.60
2019-02-04T16:49:47.167Z,1.60
2019-02-04T16:52:17.598Z,1.70
2019-02-04T16:54:48.340Z,1.70
2019-02-04T16:57:18.597Z,1.80
2019-02-04T16:59:50.520Z,1.80
2019-02-04T17:02:20.968Z,1.80
2019-02-04T17:04:51.283Z,1.80
2019-02-04T17:07:22.028Z,1.70
2019-02-04T17:09:52.249Z,1.70
2019-02-04T17:12:22.564Z,1.70
2019-02-04T17:14:53.263Z,1.60
2019-02-04T17:17:23.543Z,1.70
2019-02-04T17:19:53.867Z,1.90
2019-02-04T17:22:24.714Z,2.10
2019-02-04T17:24:55.101Z,2.00
2019-02-04T17:27:25.387Z,2.20
2019-02-04T17:29:55.715Z,2.10
2019-02-04T17:32:26.005Z,2.10
2019-02-04T17:34:56.513Z,1.90
2019-02-04T17:37:26.818Z,2.00
2019-02-04T17:39:57.143Z,2.00
2019-02-04T17:42:27.507Z,1.90
2019-02-04T17:44:57.888Z,2.00
2019-02-04T17:47:28.174Z,2.00
2019-02-04T17:49:58.543Z,2.00
2019-02-04T17:52:28.821Z,1.90
2019-02-04T17:54:59.278Z,2.00
2019-02-04T17:57:29.643Z,2.00
2019-02-04T17:59:59.955Z,1.90
2019-02-04T18:02:30.532Z,1.90
2019-02-04T18:05:01.313Z,1.90
2019-02-04T18:07:31.712Z,1.90
2019-02-04T18:10:02.070Z,1.90
2019-02-04T18:12:32.303Z,1.90
2019-02-04T18:15:02.683Z,1.80
2019-02-04T18:17:34.214Z,1.60
2019-02-04T18:20:05.401Z,1.70
2019-02-04T18:22:35.799Z,1.70
2019-02-04T18:25:07.703Z,1.70
2019-02-04T18:27:38.654Z,1.80
2019-02-04T18:30:11.630Z,1.80
2019-02-04T18:32:42.051Z,1.90
2019-02-04T18:35:13.042Z,2.00
2019-02-04T18:37:43.348Z,2.10
2019-02-04T18:40:15.601Z,2.00
2019-02-04T18:42:46.279Z,2.00
2019-02-04T18:45:27.318Z,2.00
2019-02-04T18:47:57.615Z,2.00
2019-02-04T18:50:28.234Z,2.00
2019-02-04T18:52:59.001Z,2.00
2019-02-04T18:55:31.635Z,2.00
2019-02-04T18:58:02.015Z,2.00
2019-02-04T19:00:32.642Z,2.00
2019-02-04T19:03:03.810Z,2.10
2019-02-04T19:05:34.254Z,2.20
2019-02-04T19:08:05.551Z,2.30
2019-02-04T19:10:35.803Z,2.40
2019-02-04T19:13:06.112Z,2.40
2019-02-04T19:15:36.769Z,2.30
2019-02-04T19:18:10.182Z,2.40
2019-02-04T19:20:40.433Z,2.50
2019-02-04T19:23:10.665Z,2.60
2019-02-04T19:25:41.144Z,2.60
2019-02-04T19:28:11.576Z,2.70
2019-02-04T19:30:59.024Z,2.60
2019-02-04T19:33:29.405Z,2.60
2019-02-04T19:35:59.758Z,2.40
2019-02-04T19:38:30.006Z,2.40
2019-02-04T19:41:01.012Z,2.40
2019-02-04T19:43:32.521Z,2.40
2019-02-04T19:46:02.998Z,2.50
2019-02-04T19:48:34.552Z,2.60
2019-02-04T19:51:05.582Z,2.20
2019-02-04T19:53:36.275Z,1.80
2019-02-04T19:56:07.025Z,1.70
2019-02-04T19:58:37.466Z,1.80
2019-02-04T20:01:07.752Z,2.00
2019-02-04T20:03:38.467Z,2.00
2019-02-04T20:06:08.920Z,2.00
2019-02-04T20:08:39.307Z,2.00
2019-02-04T20:11:09.571Z,2.00
2019-02-04T20:13:40.024Z,2.00
2019-02-04T20:16:10.333Z,2.00
2019-02-04T20:18:43.784Z,2.10
2019-02-04T20:21:14.298Z,2.10
2019-02-04T20:23:44.534Z,2.30
2019-02-04T20:26:14.869Z,2.20
2019-02-04T20:28:45.117Z,2.20
2019-02-04T20:31:15.428Z,2.20
2019-02-04T20:33:45.745Z,2.00
2019-02-04T20:36:16.024Z,1.70
2019-02-04T20:38:46.411Z,1.80
2019-02-04T20:41:16.682Z,1.80
2019-02-04T20:43:46.898Z,2.10
2019-02-04T20:46:17.215Z,2.20
2019-02-04T20:48:47.919Z,2.30
2019-02-04T20:51:18.579Z,2.20
2019-02-04T20:53:48.907Z,2.20
2019-02-04T20:56:19.180Z,2.20
2019-02-04T20:58:49.530Z,2.20
2019-02-04T21:01:19.870Z,2.00
2019-02-04T21:03:50.280Z,1.90
2019-02-04T21:06:20.605Z,1.70
2019-02-04T21:08:51.005Z,1.60
2019-02-04T21:11:21.340Z,1.70
2019-02-04T21:13:51.833Z,1.80
2019-02-04T21:16:22.679Z,1.80
2019-02-04T21:18:52.948Z,1.80
2019-02-04T21:21:23.245Z,1.80
2019-02-04T21:23:53.771Z,1.80
2019-02-04T21:26:24.057Z,2.00
2019-02-04T21:28:54.689Z,2.10
2019-02-04T21:31:25.264Z,2.20
2019-02-04T21:33:55.486Z,2.30
2019-02-04T21:36:25.975Z,2.40
2019-02-04T21:38:56.399Z,2.40
2019-02-04T21:41:26.681Z,2.30
2019-02-04T21:43:57.360Z,2.20
2019-02-04T21:46:27.703Z,2.10
2019-02-04T21:48:58.544Z,1.90
2019-02-04T21:51:28.844Z,2.00
2019-02-04T21:53:59.170Z,1.80
2019-02-04T21:56:29.445Z,1.80
2019-02-04T21:58:59.911Z,1.80
2019-02-04T22:01:30.168Z,1.70
2019-02-04T22:04:00.552Z,1.80
2019-02-04T22:06:31.278Z,1.90
2019-02-04T22:09:01.634Z,2.00
2019-02-04T22:11:33.448Z,2.00
2019-02-04T22:14:04.528Z,1.90
2019-02-04T22:16:34.893Z,2.00
2019-02-04T22:19:05.372Z,2.00
2019-02-04T22:21:35.730Z,2.10
2019-02-04T22:24:06.286Z,2.10
2019-02-04T22:26:36.591Z,2.00
2019-02-04T22:29:07.505Z,2.00
2019-02-04T22:31:37.958Z,2.00
2019-02-04T22:34:08.558Z,1.90
2019-02-04T22:36:39.038Z,1.80
2019-02-04T22:39:10.420Z,1.70
2019-02-04T22:41:40.689Z,1.60
2019-02-04T22:44:11.021Z,1.50
2019-02-04T22:46:41.383Z,1.40
2019-02-04T22:49:11.710Z,1.40
2019-02-04T22:51:42.033Z,1.40
2019-02-04T22:54:12.483Z,1.50
2019-02-04T22:56:42.814Z,1.70
2019-02-04T22:59:13.040Z,1.90
2019-02-04T23:01:50.615Z,1.80
2019-02-04T23:04:20.914Z,1.60
2019-02-04T23:06:51.494Z,1.50
2019-02-04T23:09:21.786Z,1.60
2019-02-04T23:11:52.302Z,1.70
2019-02-04T23:14:22.619Z,1.90
2019-02-04T23:16:52.938Z,1.90
2019-02-04T23:19:23.894Z,1.80
2019-02-04T23:21:54.362Z,1.90
2019-02-04T23:24:24.618Z,1.70
2019-02-04T23:26:55.068Z,1.60
2019-02-04T23:29:25.488Z,1.60
2019-02-04T23:31:56.281Z,1.60
2019-02-04T23:34:26.557Z,1.60
2019-02-04T23:36:56.986Z,1.70
2019-02-04T23:39:27.245Z,1.90
2019-02-04T23:41:58.375Z,1.90
2019-02-04T23:44:29.009Z,1.90
2019-02-04T23:46:59.385Z,1.90
2019-02-04T23:49:30.805Z,1.90
2019-02-04T23:52:01.188Z,2.00
2019-02-04T23:54:31.514Z,2.00
2019-02-04T23:57:02.123Z,2.00
2019-02-04T23:59:34.884Z,1.90
